Capt. Robert J. Banta — WDI3481 — position and weather

sailwx.info

Track history (hours):
 
Tides and Currents Weather Stations Pressure Air Temp Water Temp Dewpoint Dewpoint Depression Visibility Wind Speed Wind Dir Waves Ship Positions

Capt. Robert J. Banta

Owner: Chem Carriers Towing LLC, Sunshine, LA. More information available from US FCC via Universal Licensing System and Coast Guard Vessel Documentation Center.

Last reported at 2017-Oct-17 23:08 UTC. Time now 2017-Oct-18 00:10 UTC.
Position N 32°38' W 091°09'.

Length 26 m; draft 2.6 m.

Type: Towing. MMSI: 367688770.

Date/timePositionNaut miles runAvg speedWind from/ knotsBaromVisibWave heightAir tempDewpointWater temp
2017-Oct-17 23:08N 32°38' W 091°09'0 0.0
2017-Oct-17 23:00N 32°38' W 091°09'0 0.4
2017-Oct-17 22:30N 32°38' W 091°09'0 0.2
2017-Oct-17 22:00N 32°38' W 091°09'1 2.7
2017-Oct-17 21:30N 32°37' W 091°09'2 3.9
2017-Oct-17 21:00N 32°35' W 091°08'2 3.7
2017-Oct-17 20:30N 32°34' W 091°06'1 2.6
2017-Oct-17 20:00N 32°33' W 091°06'2 3.4
2017-Oct-17 19:30N 32°31' W 091°06'1 0.9
2017-Oct-17 18:47N 32°30' W 091°07'1 4.6
2017-Oct-17 18:30N 32°29' W 091°07'2 4.0
2017-Oct-17 18:00N 32°27' W 091°06'2 4.2
2017-Oct-17 17:30N 32°26' W 091°04'2 4.0
2017-Oct-17 17:00N 32°26' W 091°01'2 3.4
2017-Oct-17 16:30N 32°25' W 090°60'2 3.2
2017-Oct-17 16:00N 32°23' W 090°60'2 3.8
2017-Oct-17 15:30N 32°21' W 090°60'2 4.3
2017-Oct-17 15:00N 32°21' W 090°57'2 3.8
2017-Oct-17 14:30N 32°21' W 090°55'2 3.6
2017-Oct-17 14:00N 32°19' W 090°54'1 2.5
2017-Oct-17 13:30N 32°18' W 090°55'0 0.7
2017-Oct-17 13:00N 32°18' W 090°55'1 2.2
2017-Oct-17 12:30N 32°17' W 090°56'2 3.3
2017-Oct-17 12:00N 32°16' W 090°58'1 2.5
2017-Oct-17 11:30N 32°15' W 090°59'1 2.9
2017-Oct-17 11:00N 32°14' W 090°59'2 3.3
2017-Oct-17 10:30N 32°12' W 090°59'2 3.2
2017-Oct-17 10:00N 32°10' W 091°00'1 2.6
2017-Oct-17 09:30N 32°09' W 091°00'1 2.6
2017-Oct-17 09:00N 32°08' W 091°01'1 2.8
2017-Oct-17 08:30N 32°07' W 091°02'2 3.3
2017-Oct-17 08:00N 32°08' W 091°04'2 3.8
2017-Oct-17 07:30N 32°08' W 091°06'5 1.5
2017-Oct-17 04:30N 32°04' W 091°03'2 3.6
2017-Oct-17 04:00N 32°02' W 091°04'1 2.0
2017-Oct-17 03:30N 32°01' W 091°05'0 0.7
2017-Oct-17 03:00N 32°01' W 091°05'0 0.2
2017-Oct-17 02:30N 32°01' W 091°05'0 0.1
2017-Oct-17 02:00N 32°01' W 091°05'0 0.2
2017-Oct-17 01:29N 32°01' W 091°05'1 1.2
2017-Oct-17 01:00N 32°00' W 091°05'  
2017-Oct-14 09:52N 30°20' W 091°09'  
Track history (hours):
 
Tides and Currents Weather Stations Pressure Air Temp Water Temp Dewpoint Dewpoint Depression Visibility Wind Speed Wind Dir Waves Ship Positions

Capt. Robert J. Banta

Owner: Chem Carriers Towing LLC, Sunshine, LA. More information available from US FCC via Universal Licensing System and Coast Guard Vessel Documentation Center.

Last reported at 2017-Oct-17 23:08 UTC. Time now 2017-Oct-18 00:10 UTC.
Position N 32°38' W 091°09'.

Length 26 m; draft 2.6 m.

Type: Towing. MMSI: 367688770.

Date/timePositionNaut miles runAvg speedWind from/ knotsBaromVisibWave heightAir tempDewpointWater temp
2017-Oct-17 23:08N 32°38' W 091°09'0 0.0
2017-Oct-17 23:00N 32°38' W 091°09'0 0.4
2017-Oct-17 22:30N 32°38' W 091°09'0 0.2
2017-Oct-17 22:00N 32°38' W 091°09'1 2.7
2017-Oct-17 21:30N 32°37' W 091°09'2 3.9
2017-Oct-17 21:00N 32°35' W 091°08'2 3.7
2017-Oct-17 20:30N 32°34' W 091°06'1 2.6
2017-Oct-17 20:00N 32°33' W 091°06'2 3.4
2017-Oct-17 19:30N 32°31' W 091°06'1 0.9
2017-Oct-17 18:47N 32°30' W 091°07'1 4.6
2017-Oct-17 18:30N 32°29' W 091°07'2 4.0
2017-Oct-17 18:00N 32°27' W 091°06'2 4.2
2017-Oct-17 17:30N 32°26' W 091°04'2 4.0
2017-Oct-17 17:00N 32°26' W 091°01'2 3.4
2017-Oct-17 16:30N 32°25' W 090°60'2 3.2
2017-Oct-17 16:00N 32°23' W 090°60'2 3.8
2017-Oct-17 15:30N 32°21' W 090°60'2 4.3
2017-Oct-17 15:00N 32°21' W 090°57'2 3.8
2017-Oct-17 14:30N 32°21' W 090°55'2 3.6
2017-Oct-17 14:00N 32°19' W 090°54'1 2.5
2017-Oct-17 13:30N 32°18' W 090°55'0 0.7
2017-Oct-17 13:00N 32°18' W 090°55'1 2.2
2017-Oct-17 12:30N 32°17' W 090°56'2 3.3
2017-Oct-17 12:00N 32°16' W 090°58'1 2.5
2017-Oct-17 11:30N 32°15' W 090°59'1 2.9
2017-Oct-17 11:00N 32°14' W 090°59'2 3.3
2017-Oct-17 10:30N 32°12' W 090°59'2 3.2
2017-Oct-17 10:00N 32°10' W 091°00'1 2.6
2017-Oct-17 09:30N 32°09' W 091°00'1 2.6
2017-Oct-17 09:00N 32°08' W 091°01'1 2.8
2017-Oct-17 08:30N 32°07' W 091°02'2 3.3
2017-Oct-17 08:00N 32°08' W 091°04'2 3.8
2017-Oct-17 07:30N 32°08' W 091°06'5 1.5
2017-Oct-17 04:30N 32°04' W 091°03'2 3.6
2017-Oct-17 04:00N 32°02' W 091°04'1 2.0
2017-Oct-17 03:30N 32°01' W 091°05'0 0.7
2017-Oct-17 03:00N 32°01' W 091°05'0 0.2
2017-Oct-17 02:30N 32°01' W 091°05'0 0.1
2017-Oct-17 02:00N 32°01' W 091°05'0 0.2
2017-Oct-17 01:29N 32°01' W 091°05'1 1.2
2017-Oct-17 01:00N 32°00' W 091°05'  
2017-Oct-14 09:52N 30°20' W 091°09'  

Dump ship's entire track history